createdAt,value
2022-10-08T00:01:09.045Z,100.00
2022-10-08T00:04:21.082Z,100.00
2022-10-08T00:07:33.045Z,100.00
2022-10-08T00:10:44.740Z,100.00
2022-10-08T00:13:58.713Z,100.00
2022-10-08T00:17:10.426Z,100.00
2022-10-08T00:20:22.437Z,100.00
2022-10-08T00:23:34.186Z,100.00
2022-10-08T00:26:46.618Z,100.00
2022-10-08T00:29:58.742Z,100.00
2022-10-08T00:33:10.853Z,100.00
2022-10-08T00:36:23.177Z,100.00
2022-10-08T00:39:35.038Z,100.00
2022-10-08T00:42:46.890Z,100.00
2022-10-08T00:45:59.101Z,100.00
2022-10-08T00:49:15.810Z,100.00
2022-10-08T00:52:31.122Z,100.00
2022-10-08T00:55:44.903Z,100.00
2022-10-08T00:58:57.545Z,100.00
2022-10-08T01:02:10.786Z,100.00
2022-10-08T01:05:27.780Z,100.00
2022-10-08T01:08:44.841Z,100.00
2022-10-08T01:12:00.518Z,100.00
2022-10-08T01:15:18.145Z,100.00
2022-10-08T01:18:36.180Z,100.00
2022-10-08T01:21:53.244Z,100.00
2022-10-08T01:25:20.598Z,100.00
2022-10-08T01:28:37.404Z,100.00
2022-10-08T01:31:50.534Z,100.00
2022-10-08T01:35:07.494Z,100.00
2022-10-08T01:38:20.272Z,100.00
2022-10-08T01:41:34.988Z,100.00
2022-10-08T01:44:52.124Z,100.00
2022-10-08T01:48:03.193Z,100.00
2022-10-08T01:51:19.491Z,100.00
2022-10-08T01:54:34.530Z,100.00
2022-10-08T01:57:47.957Z,100.00
2022-10-08T02:01:02.578Z,100.00
2022-10-08T02:04:29.620Z,100.00
2022-10-08T02:07:46.105Z,100.00
2022-10-08T02:10:58.833Z,100.00
2022-10-08T02:14:11.892Z,100.00
2022-10-08T02:17:33.336Z,100.00
2022-10-08T02:20:50.559Z,100.00
2022-10-08T02:24:07.616Z,100.00
2022-10-08T02:27:19.195Z,100.00
2022-10-08T02:30:35.096Z,100.00
2022-10-08T02:33:50.774Z,100.00
2022-10-08T02:37:07.691Z,100.00
2022-10-08T02:40:22.274Z,100.00
2022-10-08T02:43:39.236Z,100.00
2022-10-08T02:46:55.597Z,100.00
2022-10-08T02:50:12.425Z,100.00
2022-10-08T02:53:25.759Z,100.00
2022-10-08T03:00:11.294Z,100.00
2022-10-08T03:03:27.390Z,100.00
2022-10-08T03:06:40.625Z,100.00
2022-10-08T03:09:54.533Z,100.00
2022-10-08T03:13:09.676Z,100.00
2022-10-08T03:16:26.746Z,100.00
2022-10-08T03:19:36.859Z,100.00
2022-10-08T03:22:49.043Z,100.00
2022-10-08T03:26:01.171Z,100.00
2022-10-08T03:29:13.317Z,100.00
2022-10-08T03:32:25.060Z,100.00
2022-10-08T03:35:36.738Z,100.00
2022-10-08T03:38:48.556Z,100.00
2022-10-08T03:42:00.199Z,100.00
2022-10-08T03:45:13.437Z,100.00
2022-10-08T03:48:26.713Z,100.00
2022-10-08T03:51:38.574Z,100.00
2022-10-08T03:54:50.376Z,100.00
2022-10-08T03:58:02.139Z,100.00
2022-10-08T04:01:19.038Z,100.00
2022-10-08T04:04:29.132Z,100.00
2022-10-08T04:07:40.802Z,100.00
2022-10-08T04:10:52.484Z,100.00
2022-10-08T04:14:05.926Z,100.00
2022-10-08T04:17:17.689Z,100.00
2022-10-08T04:20:29.727Z,100.00
2022-10-08T04:23:43.823Z,100.00
2022-10-08T04:26:55.535Z,100.00
2022-10-08T04:30:07.298Z,100.00
2022-10-08T04:33:19.280Z,100.00
2022-10-08T04:36:32.156Z,100.00
2022-10-08T04:39:44.240Z,100.00
2022-10-08T04:42:59.262Z,100.00
2022-10-08T04:46:13.627Z,100.00
2022-10-08T04:49:25.910Z,100.00
2022-10-08T04:52:39.287Z,100.00
2022-10-08T04:55:51.033Z,100.00
2022-10-08T04:59:03.832Z,100.00
2022-10-08T05:02:15.585Z,100.00
2022-10-08T05:05:28.158Z,100.00
2022-10-08T05:08:40.756Z,100.00
2022-10-08T05:11:52.552Z,100.00
2022-10-08T05:15:04.412Z,100.00
2022-10-08T05:18:16.161Z,100.00
2022-10-08T05:21:31.602Z,100.00
2022-10-08T05:24:43.645Z,100.00
2022-10-08T05:27:55.298Z,100.00
2022-10-08T05:31:10.142Z,100.00
2022-10-08T05:34:22.221Z,100.00
2022-10-08T05:37:34.318Z,100.00
2022-10-08T05:40:46.321Z,100.00
2022-10-08T05:44:01.864Z,100.00
2022-10-08T05:47:14.165Z,100.00
2022-10-08T05:50:26.230Z,100.00
2022-10-08T05:53:40.684Z,100.00
2022-10-08T05:56:52.589Z,100.00
2022-10-08T06:00:04.524Z,100.00
2022-10-08T06:03:18.916Z,100.00
2022-10-08T06:06:31.450Z,100.00
2022-10-08T06:09:45.159Z,100.00
2022-10-08T06:12:57.710Z,100.00
2022-10-08T06:16:12.296Z,100.00
2022-10-08T06:19:24.460Z,98.07
2022-10-08T06:22:36.299Z,95.58
2022-10-08T06:25:48.143Z,94.70
2022-10-08T06:29:00.477Z,94.94
2022-10-08T06:32:12.412Z,93.46
2022-10-08T06:35:24.192Z,90.68
2022-10-08T06:38:36.015Z,87.02
2022-10-08T06:41:48.017Z,85.73
2022-10-08T06:45:02.337Z,83.73
2022-10-08T06:48:15.814Z,82.43
2022-10-08T06:51:27.699Z,81.78
2022-10-08T06:54:39.508Z,80.70
2022-10-08T06:57:51.333Z,80.24
2022-10-08T07:16:28.545Z,78.91
2022-10-08T07:22:40.862Z,81.42
2022-10-08T07:35:30.041Z,90.90
2022-10-08T07:50:52.734Z,99.68
2022-10-08T07:57:04.490Z,99.91
2022-10-08T08:00:21.625Z,100.00
2022-10-08T08:22:03.345Z,90.61
2022-10-08T08:25:17.411Z,85.08
2022-10-08T08:28:29.176Z,81.26
2022-10-08T08:31:43.572Z,79.83
2022-10-08T08:34:55.663Z,77.03
2022-10-08T08:38:08.753Z,73.07
2022-10-08T08:41:36.738Z,73.24
2022-10-08T08:44:51.098Z,70.43
2022-10-08T08:48:10.626Z,69.12
2022-10-08T08:51:23.896Z,67.68
2022-10-08T08:54:36.102Z,66.98
2022-10-08T08:57:54.557Z,66.00
2022-10-08T09:01:15.589Z,65.16
2022-10-08T09:04:33.757Z,64.94
2022-10-08T09:07:50.965Z,62.84
2022-10-08T09:11:05.940Z,61.57
2022-10-08T09:14:35.361Z,59.77
2022-10-08T09:17:48.223Z,58.62
2022-10-08T09:21:03.450Z,58.70
2022-10-08T09:24:16.621Z,59.91
2022-10-08T09:27:28.503Z,61.72
2022-10-08T09:30:45.071Z,60.76
2022-10-08T09:34:08.582Z,60.51
2022-10-08T09:37:29.624Z,60.25
2022-10-08T09:40:41.432Z,60.17
2022-10-08T09:43:58.235Z,59.77
2022-10-08T09:47:17.745Z,61.04
2022-10-08T09:50:29.820Z,64.13
2022-10-08T09:53:48.739Z,64.21
2022-10-08T09:57:03.488Z,64.63
2022-10-08T10:00:35.333Z,61.44
2022-10-08T10:03:53.375Z,64.01
2022-10-08T10:07:05.939Z,63.20
2022-10-08T10:10:33.401Z,62.42
2022-10-08T10:13:47.318Z,63.63
2022-10-08T10:17:05.378Z,63.82
2022-10-08T10:20:23.611Z,63.67
2022-10-08T10:23:40.930Z,61.35
2022-10-08T10:26:56.023Z,59.60
2022-10-08T10:30:19.165Z,58.28
2022-10-08T10:33:36.113Z,55.49
2022-10-08T10:36:52.261Z,52.21
2022-10-08T10:40:26.538Z,51.53
2022-10-08T10:43:48.860Z,54.78
2022-10-08T10:47:19.890Z,51.32
2022-10-08T10:50:38.156Z,51.24
2022-10-08T10:54:00.495Z,52.33
2022-10-08T10:57:16.927Z,49.91
2022-10-08T11:00:32.917Z,48.04
2022-10-08T11:03:51.072Z,48.52
2022-10-08T11:07:23.203Z,49.32
2022-10-08T11:10:49.950Z,46.84
2022-10-08T11:14:31.369Z,47.41
2022-10-08T11:18:18.063Z,49.40
2022-10-08T11:21:51.855Z,48.96
2022-10-08T11:25:30.700Z,46.78
2022-10-08T11:28:50.915Z,47.98
2022-10-08T11:32:03.611Z,47.33
2022-10-08T11:35:35.063Z,47.52
2022-10-08T11:38:52.312Z,48.03
2022-10-08T11:42:10.386Z,48.72
2022-10-08T11:45:36.333Z,50.37
2022-10-08T11:48:50.557Z,49.33
2022-10-08T11:52:02.706Z,50.27
2022-10-08T11:55:29.523Z,50.08
2022-10-08T11:58:42.048Z,49.56
2022-10-08T12:02:03.128Z,51.79
2022-10-08T12:05:49.457Z,51.51
2022-10-08T12:09:02.740Z,52.44
2022-10-08T12:12:23.145Z,52.36
2022-10-08T12:16:04.508Z,52.74
2022-10-08T12:19:51.475Z,53.55
2022-10-08T12:23:14.536Z,57.15
2022-10-08T12:26:26.420Z,58.10
2022-10-08T12:30:01.002Z,61.96
2022-10-08T12:33:16.950Z,60.70
2022-10-08T12:36:39.458Z,59.43
2022-10-08T12:39:53.137Z,61.47
2022-10-08T12:43:18.942Z,66.79
2022-10-08T12:46:40.620Z,63.37
2022-10-08T12:49:58.310Z,63.85
2022-10-08T12:53:14.301Z,60.26
2022-10-08T12:56:30.722Z,62.50
2022-10-08T12:59:46.591Z,62.01
2022-10-08T13:03:09.587Z,64.00
2022-10-08T13:06:34.089Z,62.07
2022-10-08T13:09:50.511Z,62.89
2022-10-08T13:13:11.811Z,60.38
2022-10-08T13:16:26.844Z,59.72
2022-10-08T13:19:42.453Z,63.37
2022-10-08T13:22:54.681Z,63.88
2022-10-08T13:26:06.803Z,62.92
2022-10-08T13:29:36.663Z,62.42
2022-10-08T13:32:48.651Z,62.05
2022-10-08T13:36:03.405Z,62.05
2022-10-08T13:39:27.989Z,63.84
2022-10-08T13:42:45.524Z,66.24
2022-10-08T13:45:57.535Z,69.84
2022-10-08T13:49:19.659Z,69.13
2022-10-08T13:52:33.087Z,68.94
2022-10-08T13:55:47.238Z,68.83
2022-10-08T13:58:59.037Z,70.39
2022-10-08T14:02:11.501Z,70.61
2022-10-08T14:05:24.014Z,70.14
2022-10-08T14:08:37.100Z,69.97
2022-10-08T14:11:51.507Z,70.74
2022-10-08T14:15:03.721Z,72.49
2022-10-08T14:18:15.792Z,72.30
2022-10-08T14:21:27.736Z,73.08
2022-10-08T14:24:39.701Z,73.30
2022-10-08T14:27:52.223Z,73.93
2022-10-08T14:31:04.510Z,74.67
2022-10-08T14:34:16.551Z,75.20
2022-10-08T14:37:28.336Z,75.43
2022-10-08T14:40:40.672Z,75.44
2022-10-08T14:43:52.820Z,77.39
2022-10-08T14:47:04.635Z,78.95
2022-10-08T14:50:17.756Z,77.73
2022-10-08T14:53:29.760Z,78.19
2022-10-08T14:56:42.838Z,78.64
2022-10-08T14:59:54.949Z,80.09
2022-10-08T15:03:06.660Z,80.94
2022-10-08T15:06:18.474Z,80.22
2022-10-08T15:09:31.355Z,81.01
2022-10-08T15:12:43.147Z,82.01
2022-10-08T15:15:55.048Z,82.29
2022-10-08T15:19:06.858Z,82.94
2022-10-08T15:22:18.677Z,84.49
2022-10-08T15:25:31.257Z,84.82
2022-10-08T15:28:45.944Z,85.06
2022-10-08T15:31:58.293Z,85.91
2022-10-08T15:35:11.307Z,87.49
2022-10-08T15:38:23.260Z,87.08
2022-10-08T15:41:38.634Z,87.06
2022-10-08T15:44:51.653Z,88.38
2022-10-08T15:48:03.545Z,88.60
2022-10-08T15:51:15.647Z,88.19
2022-10-08T15:54:27.518Z,88.90
2022-10-08T15:57:39.580Z,89.33
2022-10-08T16:00:51.423Z,89.90
2022-10-08T16:04:04.707Z,90.62
2022-10-08T16:07:16.785Z,91.00
2022-10-08T16:10:29.099Z,91.64
2022-10-08T16:13:40.840Z,91.55
2022-10-08T16:16:53.911Z,92.07
2022-10-08T16:20:06.143Z,92.16
2022-10-08T17:05:08.007Z,96.09
2022-10-08T17:12:10.730Z,95.91
2022-10-08T17:15:30.263Z,96.39
2022-10-08T17:26:25.957Z,96.94
2022-10-08T20:13:02.351Z,100.00
2022-10-08T20:16:17.294Z,100.00
2022-10-08T20:19:29.713Z,100.00
2022-10-08T20:22:43.207Z,100.00
2022-10-08T20:25:55.183Z,100.00
2022-10-08T20:29:09.573Z,100.00
2022-10-08T20:32:22.574Z,100.00
2022-10-08T20:35:36.175Z,100.00
2022-10-08T20:38:49.758Z,100.00
2022-10-08T20:42:02.442Z,100.00
2022-10-08T20:45:16.279Z,100.00
2022-10-08T20:48:29.215Z,100.00
2022-10-08T20:54:42.841Z,100.00
2022-10-08T20:57:55.315Z,100.00
2022-10-08T21:01:18.395Z,100.00
2022-10-08T21:07:31.035Z,100.00
2022-10-08T21:10:43.770Z,100.00
2022-10-08T21:13:59.907Z,100.00
2022-10-08T21:17:12.214Z,100.00
2022-10-08T21:20:24.465Z,100.00
2022-10-08T21:23:38.323Z,100.00
2022-10-08T21:26:50.113Z,100.00
2022-10-08T21:30:02.954Z,100.00
2022-10-08T21:33:14.866Z,100.00
2022-10-08T21:36:29.150Z,100.00
2022-10-08T21:39:41.200Z,100.00
2022-10-08T21:42:55.410Z,100.00
2022-10-08T21:46:09.949Z,100.00
2022-10-08T22:01:35.231Z,100.00
2022-10-08T22:07:47.634Z,100.00
2022-10-08T22:11:00.277Z,100.00
2022-10-08T22:14:12.866Z,100.00
2022-10-08T22:17:24.770Z,100.00
2022-10-08T22:39:08.044Z,100.00
2022-10-08T22:42:20.353Z,100.00
2022-10-08T22:45:33.352Z,100.00
2022-10-08T22:48:46.715Z,100.00
2022-10-08T22:52:01.416Z,100.00
2022-10-08T22:55:14.951Z,100.00
2022-10-08T22:58:28.188Z,100.00
2022-10-08T23:04:41.499Z,100.00
2022-10-08T23:11:01.694Z,100.00
2022-10-08T23:14:16.170Z,100.00
